sensor_id;sensor_type;location;lat;lon;timestamp;pressure;altitude;pressure_sealevel;temperature;humidity
21826;BME280;11075;47.944;11.776;2023-04-04T00:00:20;95299.59;;;-4.26;34.62
21826;BME280;11075;47.944;11.776;2023-04-04T00:02:47;95322.03;;;-3.66;33.78
21826;BME280;11075;47.944;11.776;2023-04-04T00:05:15;95311.28;;;-4.22;34.39
21826;BME280;11075;47.944;11.776;2023-04-04T00:07:45;95302.53;;;-5.11;36.26
21826;BME280;11075;47.944;11.776;2023-04-04T00:10:13;95315.66;;;-3.29;33.10
21826;BME280;11075;47.944;11.776;2023-04-04T00:12:41;95311.84;;;-3.62;33.59
21826;BME280;11075;47.944;11.776;2023-04-04T00:15:09;95299.00;;;-4.64;35.14
21826;BME280;11075;47.944;11.776;2023-04-04T00:17:36;95298.91;;;-4.22;34.41
21826;BME280;11075;47.944;11.776;2023-04-04T00:20:04;95304.63;;;-4.02;34.50
21826;BME280;11075;47.944;11.776;2023-04-04T00:22:31;95319.56;;;-3.32;32.96
21826;BME280;11075;47.944;11.776;2023-04-04T00:24:57;95310.03;;;-3.97;34.15
21826;BME280;11075;47.944;11.776;2023-04-04T00:27:24;95281.75;;;-4.48;35.43
21826;BME280;11075;47.944;11.776;2023-04-04T00:29:51;95298.34;;;-3.77;33.71
21826;BME280;11075;47.944;11.776;2023-04-04T00:32:19;95287.53;;;-3.52;33.77
21826;BME280;11075;47.944;11.776;2023-04-04T00:34:51;95289.50;;;-3.83;34.22
21826;BME280;11075;47.944;11.776;2023-04-04T00:37:19;95287.78;;;-4.71;35.08
21826;BME280;11075;47.944;11.776;2023-04-04T00:39:47;95277.50;;;-4.49;35.42
21826;BME280;11075;47.944;11.776;2023-04-04T00:42:14;95290.13;;;-3.41;33.30
21826;BME280;11075;47.944;11.776;2023-04-04T00:44:41;95282.88;;;-3.97;34.57
21826;BME280;11075;47.944;11.776;2023-04-04T00:47:08;95281.34;;;-3.58;33.60
21826;BME280;11075;47.944;11.776;2023-04-04T00:49:36;95280.69;;;-4.70;35.31
21826;BME280;11075;47.944;11.776;2023-04-04T00:52:03;95257.97;;;-4.30;35.30
21826;BME280;11075;47.944;11.776;2023-04-04T00:54:34;95246.91;;;-5.38;36.85
21826;BME280;11075;47.944;11.776;2023-04-04T00:57:02;95251.19;;;-4.61;35.61
21826;BME280;11075;47.944;11.776;2023-04-04T00:59:31;95257.25;;;-4.60;35.03
21826;BME280;11075;47.944;11.776;2023-04-04T01:01:59;95264.91;;;-4.00;33.98
21826;BME280;11075;47.944;11.776;2023-04-04T01:04:26;95268.34;;;-3.36;33.25
21826;BME280;11075;47.944;11.776;2023-04-04T01:06:58;95260.34;;;-4.63;34.55
21826;BME280;11075;47.944;11.776;2023-04-04T01:09:26;95249.00;;;-3.93;34.90
21826;BME280;11075;47.944;11.776;2023-04-04T01:11:55;95263.22;;;-4.30;34.61
21826;BME280;11075;47.944;11.776;2023-04-04T01:14:24;95255.25;;;-3.59;33.98
21826;BME280;11075;47.944;11.776;2023-04-04T01:16:52;95245.16;;;-4.49;35.55
21826;BME280;11075;47.944;11.776;2023-04-04T01:22:19;95250.91;;;-3.66;33.76
21826;BME280;11075;47.944;11.776;2023-04-04T01:24:48;95238.38;;;-4.80;35.59
21826;BME280;11075;47.944;11.776;2023-04-04T01:27:16;95230.03;;;-4.66;35.31
21826;BME280;11075;47.944;11.776;2023-04-04T01:29:51;95230.38;;;-4.62;35.06
21826;BME280;11075;47.944;11.776;2023-04-04T01:32:25;95240.94;;;-3.63;33.64
21826;BME280;11075;47.944;11.776;2023-04-04T01:35:20;95252.50;;;-3.65;33.41
21826;BME280;11075;47.944;11.776;2023-04-04T01:38:23;95238.56;;;-3.88;33.75
21826;BME280;11075;47.944;11.776;2023-04-04T01:41:01;95234.50;;;-4.54;34.90
21826;BME280;11075;47.944;11.776;2023-04-04T01:43:31;95223.97;;;-5.61;35.92
21826;BME280;11075;47.944;11.776;2023-04-04T01:46:00;95214.75;;;-5.22;35.93
21826;BME280;11075;47.944;11.776;2023-04-04T01:48:28;95211.19;;;-4.63;35.46
21826;BME280;11075;47.944;11.776;2023-04-04T01:50:59;95238.81;;;-3.78;33.56
21826;BME280;11075;47.944;11.776;2023-04-04T01:53:27;95228.41;;;-4.08;34.24
21826;BME280;11075;47.944;11.776;2023-04-04T01:55:54;95230.72;;;-4.23;33.88
21826;BME280;11075;47.944;11.776;2023-04-04T01:58:22;95231.38;;;-4.05;33.92
21826;BME280;11075;47.944;11.776;2023-04-04T02:00:49;95224.09;;;-4.61;35.19
21826;BME280;11075;47.944;11.776;2023-04-04T02:03:16;95224.31;;;-4.74;35.35
21826;BME280;11075;47.944;11.776;2023-04-04T02:05:43;95226.03;;;-4.21;34.14
21826;BME280;11075;47.944;11.776;2023-04-04T02:08:10;95224.78;;;-4.54;35.13
21826;BME280;11075;47.944;11.776;2023-04-04T02:10:46;95207.94;;;-5.00;35.70
21826;BME280;11075;47.944;11.776;2023-04-04T02:13:13;95203.16;;;-5.44;36.64
21826;BME280;11075;47.944;11.776;2023-04-04T02:15:40;95196.34;;;-5.64;36.98
21826;BME280;11075;47.944;11.776;2023-04-04T02:18:08;95198.06;;;-5.28;36.49
21826;BME280;11075;47.944;11.776;2023-04-04T02:20:35;95201.09;;;-4.77;35.56
21826;BME280;11075;47.944;11.776;2023-04-04T02:23:02;95190.69;;;-4.96;36.05
21826;BME280;11075;47.944;11.776;2023-04-04T02:25:29;95214.44;;;-3.97;33.96
21826;BME280;11075;47.944;11.776;2023-04-04T02:27:56;95204.44;;;-4.47;35.15
21826;BME280;11075;47.944;11.776;2023-04-04T02:30:22;95187.84;;;-5.47;36.76
21826;BME280;11075;47.944;11.776;2023-04-04T02:32:50;95204.19;;;-4.34;34.73
21826;BME280;11075;47.944;11.776;2023-04-04T02:35:19;95213.72;;;-3.92;34.15
21826;BME280;11075;47.944;11.776;2023-04-04T02:37:46;95197.31;;;-5.05;35.93
21826;BME280;11075;47.944;11.776;2023-04-04T02:40:21;95205.31;;;-4.18;34.68
21826;BME280;11075;47.944;11.776;2023-04-04T02:42:48;95209.81;;;-4.42;34.47
21826;BME280;11075;47.944;11.776;2023-04-04T02:45:15;95210.81;;;-4.31;34.10
21826;BME280;11075;47.944;11.776;2023-04-04T02:47:50;95220.31;;;-4.65;34.54
21826;BME280;11075;47.944;11.776;2023-04-04T02:50:22;95206.13;;;-4.76;35.33
21826;BME280;11075;47.944;11.776;2023-04-04T02:53:01;95212.19;;;-4.75;35.25
21826;BME280;11075;47.944;11.776;2023-04-04T02:55:31;95219.22;;;-3.94;33.91
21826;BME280;11075;47.944;11.776;2023-04-04T02:57:58;95198.38;;;-4.59;35.18
21826;BME280;11075;47.944;11.776;2023-04-04T03:00:27;95203.06;;;-4.73;35.25
21826;BME280;11075;47.944;11.776;2023-04-04T03:02:56;95205.56;;;-4.43;34.92
21826;BME280;11075;47.944;11.776;2023-04-04T03:05:30;95200.63;;;-4.16;34.17
21826;BME280;11075;47.944;11.776;2023-04-04T03:07:58;95208.13;;;-3.96;33.34
21826;BME280;11075;47.944;11.776;2023-04-04T03:10:27;95215.28;;;-4.20;34.22
21826;BME280;11075;47.944;11.776;2023-04-04T03:12:58;95217.59;;;-3.83;33.61
21826;BME280;11075;47.944;11.776;2023-04-04T03:15:26;95218.91;;;-3.98;33.31
21826;BME280;11075;47.944;11.776;2023-04-04T03:17:53;95238.97;;;-3.28;32.40
21826;BME280;11075;47.944;11.776;2023-04-04T03:20:24;95211.06;;;-4.79;35.08
21826;BME280;11075;47.944;11.776;2023-04-04T03:22:52;95206.09;;;-5.11;35.61
21826;BME280;11075;47.944;11.776;2023-04-04T03:25:19;95213.31;;;-4.13;34.20
21826;BME280;11075;47.944;11.776;2023-04-04T03:27:46;95234.16;;;-4.11;33.60
21826;BME280;11075;47.944;11.776;2023-04-04T03:30:19;95225.09;;;-4.04;33.59
21826;BME280;11075;47.944;11.776;2023-04-04T03:32:46;95218.69;;;-4.19;34.01
21826;BME280;11075;47.944;11.776;2023-04-04T03:35:14;95211.97;;;-4.50;34.67
21826;BME280;11075;47.944;11.776;2023-04-04T03:37:41;95213.44;;;-4.31;33.80
21826;BME280;11075;47.944;11.776;2023-04-04T03:40:08;95233.63;;;-3.73;32.86
21826;BME280;11075;47.944;11.776;2023-04-04T03:42:37;95218.25;;;-4.40;34.23
21826;BME280;11075;47.944;11.776;2023-04-04T03:45:08;95211.84;;;-4.32;34.32
21826;BME280;11075;47.944;11.776;2023-04-04T03:47:36;95217.94;;;-4.55;34.68
21826;BME280;11075;47.944;11.776;2023-04-04T03:50:03;95223.56;;;-3.88;33.22
21826;BME280;11075;47.944;11.776;2023-04-04T03:52:33;95218.38;;;-4.23;34.34
21826;BME280;11075;47.944;11.776;2023-04-04T03:55:02;95228.66;;;-4.10;33.56
21826;BME280;11075;47.944;11.776;2023-04-04T03:57:30;95225.13;;;-4.50;34.14
21826;BME280;11075;47.944;11.776;2023-04-04T03:59:57;95219.53;;;-5.31;35.29
21826;BME280;11075;47.944;11.776;2023-04-04T04:02:24;95215.94;;;-5.06;35.31
21826;BME280;11075;47.944;11.776;2023-04-04T04:04:51;95221.31;;;-4.08;33.36
21826;BME280;11075;47.944;11.776;2023-04-04T04:07:18;95234.72;;;-4.21;33.50
21826;BME280;11075;47.944;11.776;2023-04-04T04:09:45;95229.03;;;-4.53;34.13
21826;BME280;11075;47.944;11.776;2023-04-04T04:12:12;95235.53;;;-4.20;33.69
21826;BME280;11075;47.944;11.776;2023-04-04T04:14:40;95239.75;;;-4.19;33.61
21826;BME280;11075;47.944;11.776;2023-04-04T04:17:07;95230.25;;;-4.79;34.86
21826;BME280;11075;47.944;11.776;2023-04-04T04:19:35;95246.56;;;-3.72;33.07
21826;BME280;11075;47.944;11.776;2023-04-04T04:22:01;95226.34;;;-5.00;35.26
21826;BME280;11075;47.944;11.776;2023-04-04T04:24:29;95239.38;;;-4.93;35.14
21826;BME280;11075;47.944;11.776;2023-04-04T04:26:57;95237.72;;;-4.52;34.44
21826;BME280;11075;47.944;11.776;2023-04-04T04:29:24;95240.09;;;-4.63;34.48
21826;BME280;11075;47.944;11.776;2023-04-04T04:31:52;95233.00;;;-5.75;35.52
21826;BME280;11075;47.944;11.776;2023-04-04T04:34:21;95238.88;;;-5.13;34.85
21826;BME280;11075;47.944;11.776;2023-04-04T04:36:49;95237.56;;;-4.11;33.65
21826;BME280;11075;47.944;11.776;2023-04-04T04:39:21;95245.94;;;-4.61;34.24
21826;BME280;11075;47.944;11.776;2023-04-04T04:42:08;95246.06;;;-4.20;33.79
21826;BME280;11075;47.944;11.776;2023-04-04T04:44:42;95232.09;;;-4.79;34.55
21826;BME280;11075;47.944;11.776;2023-04-04T04:47:09;95252.44;;;-3.93;33.21
21826;BME280;11075;47.944;11.776;2023-04-04T04:49:37;95263.22;;;-4.30;33.41
21826;BME280;11075;47.944;11.776;2023-04-04T04:52:08;95261.69;;;-3.90;32.54
21826;BME280;11075;47.944;11.776;2023-04-04T04:54:38;95262.06;;;-4.57;33.97
21826;BME280;11075;47.944;11.776;2023-04-04T04:57:05;95241.56;;;-5.32;35.11
21826;BME280;11075;47.944;11.776;2023-04-04T04:59:36;95249.16;;;-4.35;33.94
21826;BME280;11075;47.944;11.776;2023-04-04T05:02:03;95255.44;;;-4.36;33.33
21826;BME280;11075;47.944;11.776;2023-04-04T05:04:35;95241.09;;;-4.99;34.64
21826;BME280;11075;47.944;11.776;2023-04-04T05:07:04;95262.41;;;-4.53;33.83
21826;BME280;11075;47.944;11.776;2023-04-04T05:09:33;95254.75;;;-5.20;34.61
21826;BME280;11075;47.944;11.776;2023-04-04T05:12:00;95263.91;;;-4.46;34.33
21826;BME280;11075;47.944;11.776;2023-04-04T05:14:36;95281.97;;;-3.91;32.99
21826;BME280;11075;47.944;11.776;2023-04-04T05:17:03;95271.78;;;-3.87;32.76
21826;BME280;11075;47.944;11.776;2023-04-04T05:19:32;95274.13;;;-4.91;34.40
21826;BME280;11075;47.944;11.776;2023-04-04T05:22:00;95265.13;;;-5.25;34.77
21826;BME280;11075;47.944;11.776;2023-04-04T05:24:35;95275.91;;;-4.50;33.68
21826;BME280;11075;47.944;11.776;2023-04-04T05:27:02;95255.09;;;-5.16;35.25
21826;BME280;11075;47.944;11.776;2023-04-04T05:29:36;95272.13;;;-3.96;33.50
21826;BME280;11075;47.944;11.776;2023-04-04T05:32:03;95282.75;;;-4.72;33.57
21826;BME280;11075;47.944;11.776;2023-04-04T05:34:32;95271.69;;;-4.51;33.29
21826;BME280;11075;47.944;11.776;2023-04-04T05:37:04;95272.00;;;-3.89;33.23
21826;BME280;11075;47.944;11.776;2023-04-04T05:39:32;95242.16;;;-5.96;36.84
21826;BME280;11075;47.944;11.776;2023-04-04T05:42:03;95300.53;;;-3.06;31.30
21826;BME280;11075;47.944;11.776;2023-04-04T05:44:34;95325.84;;;-1.37;29.60
21826;BME280;11075;47.944;11.776;2023-04-04T05:47:04;95325.59;;;-3.20;31.14
21826;BME280;11075;47.944;11.776;2023-04-04T05:49:31;95298.13;;;-4.22;33.27
21826;BME280;11075;47.944;11.776;2023-04-04T05:52:00;95299.13;;;-4.58;33.94
21826;BME280;11075;47.944;11.776;2023-04-04T05:54:29;95277.50;;;-5.14;34.97
21826;BME280;11075;47.944;11.776;2023-04-04T05:57:00;95253.50;;;-5.47;36.85
21826;BME280;11075;47.944;11.776;2023-04-04T05:59:43;95281.41;;;-4.16;34.42
21826;BME280;11075;47.944;11.776;2023-04-04T06:02:13;95286.28;;;-3.61;33.24
21826;BME280;11075;47.944;11.776;2023-04-04T06:04:44;95278.19;;;-4.53;34.53
21826;BME280;11075;47.944;11.776;2023-04-04T06:07:17;95271.44;;;-4.49;35.04
21826;BME280;11075;47.944;11.776;2023-04-04T06:09:44;95287.22;;;-3.91;33.10
21826;BME280;11075;47.944;11.776;2023-04-04T06:12:11;95312.94;;;-1.94;30.98
21826;BME280;11075;47.944;11.776;2023-04-04T06:14:39;95301.31;;;-3.97;33.23
21826;BME280;11075;47.944;11.776;2023-04-04T06:17:07;95294.88;;;-3.54;33.50
21826;BME280;11075;47.944;11.776;2023-04-04T06:19:34;95313.09;;;-3.24;31.67
21826;BME280;11075;47.944;11.776;2023-04-04T06:22:01;95325.25;;;-1.83;30.92
21826;BME280;11075;47.944;11.776;2023-04-04T06:24:31;95343.66;;;-1.71;30.00
21826;BME280;11075;47.944;11.776;2023-04-04T06:26:59;95309.16;;;-2.65;32.31
21826;BME280;11075;47.944;11.776;2023-04-04T06:29:27;95306.53;;;-2.65;32.04
21826;BME280;11075;47.944;11.776;2023-04-04T06:31:58;95316.47;;;-2.05;31.50
21826;BME280;11075;47.944;11.776;2023-04-04T06:34:34;95304.28;;;-3.58;32.70
21826;BME280;11075;47.944;11.776;2023-04-04T06:37:01;95302.13;;;-2.76;32.46
21826;BME280;11075;47.944;11.776;2023-04-04T06:39:35;95263.13;;;-5.00;36.20
21826;BME280;11075;47.944;11.776;2023-04-04T06:42:07;95266.44;;;-4.39;35.26
21826;BME280;11075;47.944;11.776;2023-04-04T06:44:35;95296.88;;;-3.33;32.97
21826;BME280;11075;47.944;11.776;2023-04-04T06:47:02;95313.66;;;-1.60;30.63
21826;BME280;11075;47.944;11.776;2023-04-04T06:49:29;95313.81;;;-1.50;31.03
21826;BME280;11075;47.944;11.776;2023-04-04T06:51:55;95331.44;;;-1.55;30.01
21826;BME280;11075;47.944;11.776;2023-04-04T06:54:23;95320.47;;;-2.36;31.20
21826;BME280;11075;47.944;11.776;2023-04-04T06:56:51;95338.06;;;-1.75;29.38
21826;BME280;11075;47.944;11.776;2023-04-04T06:59:19;95303.09;;;-3.51;32.83
21826;BME280;11075;47.944;11.776;2023-04-04T07:01:46;95274.66;;;-4.59;34.75
21826;BME280;11075;47.944;11.776;2023-04-04T07:04:13;95282.03;;;-4.91;34.04
21826;BME280;11075;47.944;11.776;2023-04-04T07:06:40;95277.25;;;-3.89;33.30
21826;BME280;11075;47.944;11.776;2023-04-04T07:09:07;95300.13;;;-2.69;31.90
21826;BME280;11075;47.944;11.776;2023-04-04T07:11:51;95320.22;;;-2.35;30.56
21826;BME280;11075;47.944;11.776;2023-04-04T07:14:18;95299.69;;;-4.56;33.32
21826;BME280;11075;47.944;11.776;2023-04-04T07:16:46;95306.66;;;-3.17;31.86
21826;BME280;11075;47.944;11.776;2023-04-04T07:19:13;95305.25;;;-3.36;31.54
21826;BME280;11075;47.944;11.776;2023-04-04T07:21:40;95333.41;;;-1.24;29.55
21826;BME280;11075;47.944;11.776;2023-04-04T07:24:07;95350.28;;;-0.59;28.45
21826;BME280;11075;47.944;11.776;2023-04-04T07:26:35;95318.63;;;-2.02;30.95
21826;BME280;11075;47.944;11.776;2023-04-04T07:29:02;95336.44;;;-1.15;30.09
21826;BME280;11075;47.944;11.776;2023-04-04T07:31:29;95335.03;;;-2.33;30.79
21826;BME280;11075;47.944;11.776;2023-04-04T07:33:56;95318.53;;;-1.90;31.01
21826;BME280;11075;47.944;11.776;2023-04-04T07:36:23;95313.78;;;-2.89;31.95
21826;BME280;11075;47.944;11.776;2023-04-04T07:38:49;95329.41;;;-2.37;30.53
21826;BME280;11075;47.944;11.776;2023-04-04T07:41:16;95339.97;;;-1.70;29.63
21826;BME280;11075;47.944;11.776;2023-04-04T07:43:44;95320.38;;;-2.58;31.33
21826;BME280;11075;47.944;11.776;2023-04-04T07:46:10;95333.59;;;-1.52;29.98
21826;BME280;11075;47.944;11.776;2023-04-04T07:48:37;95354.03;;;-1.64;28.93
21826;BME280;11075;47.944;11.776;2023-04-04T07:51:04;95343.34;;;-1.75;30.01
21826;BME280;11075;47.944;11.776;2023-04-04T07:53:31;95345.66;;;-1.78;29.07
21826;BME280;11075;47.944;11.776;2023-04-04T07:55:59;95359.47;;;-2.55;29.43
21826;BME280;11075;47.944;11.776;2023-04-04T07:58:32;95353.03;;;-1.80;29.29
21826;BME280;11075;47.944;11.776;2023-04-04T08:01:00;95373.94;;;-1.79;28.85
21826;BME280;11075;47.944;11.776;2023-04-04T08:03:28;95381.75;;;-1.07;27.72
21826;BME280;11075;47.944;11.776;2023-04-04T08:05:56;95360.06;;;-3.10;29.68
21826;BME280;11075;47.944;11.776;2023-04-04T08:08:22;95356.66;;;-1.86;29.24
21826;BME280;11075;47.944;11.776;2023-04-04T08:10:49;95353.97;;;-3.10;30.65
21826;BME280;11075;47.944;11.776;2023-04-04T08:13:16;95374.44;;;-2.15;29.30
21826;BME280;11075;47.944;11.776;2023-04-04T08:15:43;95412.56;;;1.49;25.48
21826;BME280;11075;47.944;11.776;2023-04-04T08:18:11;95418.31;;;-0.60;26.77
21826;BME280;11075;47.944;11.776;2023-04-04T08:20:38;95374.25;;;-3.62;29.56
21826;BME280;11075;47.944;11.776;2023-04-04T08:23:05;95382.66;;;-2.57;28.88
21826;BME280;11075;47.944;11.776;2023-04-04T08:25:32;95381.91;;;-0.16;27.51
21826;BME280;11075;47.944;11.776;2023-04-04T08:28:01;95358.81;;;-2.62;30.08
21826;BME280;11075;47.944;11.776;2023-04-04T08:30:30;95359.75;;;-2.85;30.11
21826;BME280;11075;47.944;11.776;2023-04-04T08:32:57;95364.72;;;-1.38;28.69
21826;BME280;11075;47.944;11.776;2023-04-04T08:35:25;95364.31;;;-2.80;29.96
21826;BME280;11075;47.944;11.776;2023-04-04T08:37:51;95383.94;;;-0.28;27.23
21826;BME280;11075;47.944;11.776;2023-04-04T08:40:19;95383.88;;;-1.86;28.47
21826;BME280;11075;47.944;11.776;2023-04-04T08:42:47;95377.88;;;-2.60;28.96
21826;BME280;11075;47.944;11.776;2023-04-04T08:45:16;95362.47;;;-3.08;30.17
21826;BME280;11075;47.944;11.776;2023-04-04T08:47:45;95411.63;;;1.08;25.46
21826;BME280;11075;47.944;11.776;2023-04-04T08:50:15;95432.25;;;-0.43;25.61
21826;BME280;11075;47.944;11.776;2023-04-04T08:52:43;95414.59;;;-2.13;27.38
21826;BME280;11075;47.944;11.776;2023-04-04T08:55:11;95403.38;;;-3.06;27.73
21826;BME280;11075;47.944;11.776;2023-04-04T08:57:39;95421.75;;;0.27;25.89
21826;BME280;11075;47.944;11.776;2023-04-04T09:00:07;95409.22;;;-0.42;26.85
21826;BME280;11075;47.944;11.776;2023-04-04T09:05:43;95402.66;;;-1.65;27.77
21826;BME280;11075;47.944;11.776;2023-04-04T09:08:12;95427.09;;;0.32;25.54
21826;BME280;11075;47.944;11.776;2023-04-04T09:10:40;95400.13;;;-2.39;27.92
21826;BME280;11075;47.944;11.776;2023-04-04T09:13:10;95402.47;;;-1.42;27.63
21826;BME280;11075;47.944;11.776;2023-04-04T09:15:46;95431.00;;;0.24;25.21
21826;BME280;11075;47.944;11.776;2023-04-04T09:18:14;95425.56;;;-1.16;26.26
21826;BME280;11075;47.944;11.776;2023-04-04T09:20:43;95418.88;;;-3.21;27.19
21826;BME280;11075;47.944;11.776;2023-04-04T09:23:17;95428.53;;;-2.01;25.45
21826;BME280;11075;47.944;11.776;2023-04-04T09:25:53;95427.47;;;-1.11;26.01
21826;BME280;11075;47.944;11.776;2023-04-04T09:28:23;95442.38;;;0.19;24.99
21826;BME280;11075;47.944;11.776;2023-04-04T09:30:51;95457.41;;;-0.18;24.58
21826;BME280;11075;47.944;11.776;2023-04-04T09:33:20;95431.94;;;-1.33;26.52
21826;BME280;11075;47.944;11.776;2023-04-04T09:35:54;95439.41;;;-2.14;26.12
21826;BME280;11075;47.944;11.776;2023-04-04T09:38:25;95456.28;;;1.16;23.69
21826;BME280;11075;47.944;11.776;2023-04-04T09:40:54;95444.75;;;-0.11;25.29
21826;BME280;11075;47.944;11.776;2023-04-04T09:43:23;95439.50;;;0.58;25.31
21826;BME280;11075;47.944;11.776;2023-04-04T09:45:53;95448.31;;;2.55;23.60
21826;BME280;11075;47.944;11.776;2023-04-04T09:48:25;95464.50;;;1.14;23.68
21826;BME280;11075;47.944;11.776;2023-04-04T09:50:53;95455.13;;;0.54;24.53
21826;BME280;11075;47.944;11.776;2023-04-04T09:53:20;95474.63;;;2.00;23.40
21826;BME280;11075;47.944;11.776;2023-04-04T09:55:51;95476.25;;;2.57;22.63
21826;BME280;11075;47.944;11.776;2023-04-04T09:58:26;95459.84;;;0.90;24.10
21826;BME280;11075;47.944;11.776;2023-04-04T10:00:57;95463.44;;;1.98;24.04
21826;BME280;11075;47.944;11.776;2023-04-04T10:03:26;95473.69;;;0.97;23.88
21826;BME280;11075;47.944;11.776;2023-04-04T10:08:23;95474.00;;;-1.32;25.25
21826;BME280;11075;47.944;11.776;2023-04-04T10:10:57;95468.31;;;0.17;24.43
21826;BME280;11075;47.944;11.776;2023-04-04T10:13:37;95484.59;;;-0.01;23.42
21826;BME280;11075;47.944;11.776;2023-04-04T10:16:12;95490.16;;;0.57;22.88
21826;BME280;11075;47.944;11.776;2023-04-04T10:18:40;95513.97;;;4.39;20.23
21826;BME280;11075;47.944;11.776;2023-04-04T10:21:07;95516.34;;;5.38;20.14
21826;BME280;11075;47.944;11.776;2023-04-04T10:23:40;95512.38;;;3.99;20.83
21826;BME280;11075;47.944;11.776;2023-04-04T10:26:08;95520.94;;;2.55;21.30
21826;BME280;11075;47.944;11.776;2023-04-04T10:28:35;95524.56;;;4.88;20.30
21826;BME280;11075;47.944;11.776;2023-04-04T10:31:36;95554.59;;;8.63;17.18
21826;BME280;11075;47.944;11.776;2023-04-04T10:37:08;95508.81;;;-0.41;22.68
21826;BME280;11075;47.944;11.776;2023-04-04T10:39:50;95511.91;;;0.32;22.97
21826;BME280;11075;47.944;11.776;2023-04-04T10:42:18;95512.47;;;3.79;20.83
21826;BME280;11075;47.944;11.776;2023-04-04T10:44:45;95546.84;;;4.34;20.07
21826;BME280;11075;47.944;11.776;2023-04-04T10:49:45;95550.78;;;6.11;18.58
21826;BME280;11075;47.944;11.776;2023-04-04T10:52:14;95583.53;;;7.75;17.07
21826;BME280;11075;47.944;11.776;2023-04-04T10:54:42;95544.88;;;7.63;18.82
21826;BME280;11075;47.944;11.776;2023-04-04T10:57:14;95527.09;;;2.66;21.81
21826;BME280;11075;47.944;11.776;2023-04-04T11:00:03;95506.56;;;-0.27;24.30
21826;BME280;11075;47.944;11.776;2023-04-04T11:02:55;95522.06;;;5.50;20.36
21826;BME280;11075;47.944;11.776;2023-04-04T11:05:31;95544.22;;;3.75;20.12
21826;BME280;11075;47.944;11.776;2023-04-04T11:08:02;95572.78;;;11.13;16.08
21826;BME280;11075;47.944;11.776;2023-04-04T11:10:36;95585.28;;;7.06;17.78
21826;BME280;11075;47.944;11.776;2023-04-04T11:13:18;95548.88;;;4.87;19.97
21826;BME280;11075;47.944;11.776;2023-04-04T11:21:02;95557.53;;;9.51;17.25
21826;BME280;11075;47.944;11.776;2023-04-04T11:26:34;95503.59;;;1.29;22.51
21826;BME280;11075;47.944;11.776;2023-04-04T11:29:02;95493.94;;;1.70;22.30
21826;BME280;11075;47.944;11.776;2023-04-04T11:31:33;95479.69;;;-0.63;24.23
21826;BME280;11075;47.944;11.776;2023-04-04T11:34:14;95480.41;;;1.72;22.71
21826;BME280;11075;47.944;11.776;2023-04-04T11:36:54;95468.03;;;-0.40;24.95
21826;BME280;11075;47.944;11.776;2023-04-04T11:39:29;95478.38;;;1.32;22.77
21826;BME280;11075;47.944;11.776;2023-04-04T11:42:00;95508.22;;;7.31;18.65
21826;BME280;11075;47.944;11.776;2023-04-04T11:44:33;95523.19;;;6.85;18.41
21826;BME280;11075;47.944;11.776;2023-04-04T11:49:34;95585.09;;;7.16;16.72
21826;BME280;11075;47.944;11.776;2023-04-04T11:52:07;95521.44;;;5.34;20.56
21826;BME280;11075;47.944;11.776;2023-04-04T11:54:36;95496.41;;;3.19;22.10
21826;BME280;11075;47.944;11.776;2023-04-04T11:57:16;95483.72;;;2.65;22.55
21826;BME280;11075;47.944;11.776;2023-04-04T11:59:45;95506.16;;;6.06;19.53
21826;BME280;11075;47.944;11.776;2023-04-04T12:02:22;95529.75;;;10.21;16.84
21826;BME280;11075;47.944;11.776;2023-04-04T12:04:50;95545.00;;;11.21;16.44
21826;BME280;11075;47.944;11.776;2023-04-04T12:07:18;95578.34;;;12.10;15.47
21826;BME280;11075;47.944;11.776;2023-04-04T12:09:46;95538.63;;;4.26;19.78
21826;BME280;11075;47.944;11.776;2023-04-04T12:12:14;95492.97;;;1.97;22.81
21826;BME280;11075;47.944;11.776;2023-04-04T12:14:46;95503.94;;;5.23;19.42
21826;BME280;11075;47.944;11.776;2023-04-04T12:17:14;95548.66;;;9.42;16.75
21826;BME280;11075;47.944;11.776;2023-04-04T12:19:42;95584.66;;;10.60;15.19
21826;BME280;11075;47.944;11.776;2023-04-04T12:22:10;95535.81;;;5.14;19.27
21826;BME280;11075;47.944;11.776;2023-04-04T12:24:37;95534.75;;;4.03;20.11
21826;BME280;11075;47.944;11.776;2023-04-04T12:27:05;95563.19;;;8.87;16.07
21826;BME280;11075;47.944;11.776;2023-04-04T12:29:32;95555.53;;;4.89;17.95
21826;BME280;11075;47.944;11.776;2023-04-04T12:32:04;95554.22;;;7.05;16.88
21826;BME280;11075;47.944;11.776;2023-04-04T12:34:32;95577.47;;;9.50;15.71
21826;BME280;11075;47.944;11.776;2023-04-04T12:37:01;95553.19;;;9.64;16.65
21826;BME280;11075;47.944;11.776;2023-04-04T12:39:29;95486.34;;;2.35;22.62
21826;BME280;11075;47.944;11.776;2023-04-04T12:41:59;95454.94;;;1.96;23.47
21826;BME280;11075;47.944;11.776;2023-04-04T12:44:37;95437.06;;;0.94;24.46
21826;BME280;11075;47.944;11.776;2023-04-04T12:47:08;95444.59;;;2.10;23.43
21826;BME280;11075;47.944;11.776;2023-04-04T12:52:04;95518.72;;;9.74;17.44
21826;BME280;11075;47.944;11.776;2023-04-04T12:54:38;95481.25;;;1.20;22.53
21826;BME280;11075;47.944;11.776;2023-04-04T12:57:05;95484.72;;;4.63;19.93
21826;BME280;11075;47.944;11.776;2023-04-04T12:59:34;95484.47;;;4.64;20.09
21826;BME280;11075;47.944;11.776;2023-04-04T13:02:07;95472.41;;;1.67;22.27
21826;BME280;11075;47.944;11.776;2023-04-04T13:04:34;95497.13;;;6.58;18.08
21826;BME280;11075;47.944;11.776;2023-04-04T13:07:02;95513.34;;;8.81;17.16
21826;BME280;11075;47.944;11.776;2023-04-04T13:09:29;95503.56;;;7.50;18.01
21826;BME280;11075;47.944;11.776;2023-04-04T13:12:03;95535.84;;;9.47;16.33
21826;BME280;11075;47.944;11.776;2023-04-04T13:14:58;95507.81;;;7.78;18.58
21826;BME280;11075;47.944;11.776;2023-04-04T13:17:38;95498.16;;;8.41;17.68
21826;BME280;11075;47.944;11.776;2023-04-04T13:20:06;95509.72;;;6.90;18.04
21826;BME280;11075;47.944;11.776;2023-04-04T13:22:34;95507.91;;;6.86;17.08
21826;BME280;11075;47.944;11.776;2023-04-04T13:25:03;95487.91;;;8.20;18.71
21826;BME280;11075;47.944;11.776;2023-04-04T13:27:30;95496.75;;;6.27;19.36
21826;BME280;11075;47.944;11.776;2023-04-04T13:29:58;95490.28;;;3.24;20.59
21826;BME280;11075;47.944;11.776;2023-04-04T13:32:25;95492.75;;;3.80;19.92